createdAt,value
2018-12-12T00:02:14.644Z,1.59
2018-12-12T00:04:43.106Z,1.56
2018-12-12T00:07:11.526Z,1.52
2018-12-12T00:09:40.363Z,1.59
2018-12-12T00:12:08.849Z,1.62
2018-12-12T00:14:37.262Z,1.64
2018-12-12T00:17:05.718Z,1.59
2018-12-12T00:19:34.169Z,1.59
2018-12-12T00:22:02.829Z,1.62
2018-12-12T00:24:31.290Z,1.64
2018-12-12T00:27:00.645Z,1.66
2018-12-12T00:29:29.304Z,1.69
2018-12-12T00:31:57.792Z,0.83
2018-12-12T00:34:26.277Z,1.74
2018-12-12T00:36:54.709Z,1.79
2018-12-12T00:39:24.793Z,1.89
2018-12-12T00:41:53.254Z,1.99
2018-12-12T00:44:22.044Z,2.05
2018-12-12T00:46:51.033Z,2.19
2018-12-12T00:49:19.709Z,2.41
2018-12-12T00:51:49.309Z,2.41
2018-12-12T00:54:17.753Z,2.50
2018-12-12T00:56:46.294Z,2.65
2018-12-12T00:59:14.724Z,2.54
2018-12-12T01:01:43.205Z,2.39
2018-12-12T01:04:11.696Z,2.00
2018-12-12T01:06:40.162Z,2.24
2018-12-12T01:09:08.599Z,2.25
2018-12-12T01:11:42.668Z,2.20
2018-12-12T01:14:11.449Z,2.15
2018-12-12T01:16:39.926Z,2.12
2018-12-12T01:19:08.410Z,2.11
2018-12-12T01:21:36.831Z,2.10
2018-12-12T01:24:05.280Z,2.20
2018-12-12T01:26:33.769Z,2.15
2018-12-12T01:29:02.254Z,2.17
2018-12-12T01:31:30.696Z,2.23
2018-12-12T01:33:59.204Z,2.29
2018-12-12T01:36:27.878Z,2.25
2018-12-12T01:38:56.305Z,2.19
2018-12-12T01:41:24.901Z,2.13
2018-12-12T01:43:53.348Z,2.11
2018-12-12T01:46:21.787Z,2.11
2018-12-12T01:48:50.257Z,2.10
2018-12-12T01:51:18.689Z,2.07
2018-12-12T01:53:48.126Z,2.36
2018-12-12T01:56:16.597Z,2.46
2018-12-12T01:58:45.056Z,2.34
2018-12-12T02:01:14.059Z,2.27
2018-12-12T02:03:42.513Z,2.23
2018-12-12T02:06:11.212Z,2.22
2018-12-12T02:08:39.693Z,2.20
2018-12-12T02:11:08.163Z,2.19
2018-12-12T02:13:37.349Z,2.17
2018-12-12T02:16:07.193Z,2.17
2018-12-12T02:18:37.330Z,2.16
2018-12-12T02:21:05.766Z,2.15
2018-12-12T02:23:34.191Z,2.15
2018-12-12T02:26:02.686Z,2.16
2018-12-12T02:28:31.129Z,2.17
2018-12-12T02:30:59.574Z,2.16
2018-12-12T02:33:28.055Z,2.16
2018-12-12T02:35:56.485Z,2.15
2018-12-12T02:38:24.930Z,2.14
2018-12-12T02:40:53.399Z,2.16
2018-12-12T02:43:21.980Z,2.16
2018-12-12T02:45:50.408Z,2.15
2018-12-12T02:48:18.886Z,1.83
2018-12-12T02:50:47.835Z,2.12
2018-12-12T02:53:16.253Z,2.12
2018-12-12T02:55:45.174Z,2.10
2018-12-12T02:58:13.626Z,2.10
2018-12-12T03:00:42.146Z,2.08
2018-12-12T03:03:10.599Z,2.07
2018-12-12T03:05:39.022Z,2.06
2018-12-12T03:08:07.450Z,2.02
2018-12-12T03:10:35.911Z,2.01
2018-12-12T03:13:04.340Z,1.98
2018-12-12T03:15:32.757Z,1.98
2018-12-12T03:18:01.659Z,1.95
2018-12-12T03:20:30.158Z,1.96
2018-12-12T03:22:58.586Z,1.95
2018-12-12T03:25:27.085Z,1.95
2018-12-12T03:27:55.506Z,1.96
2018-12-12T03:30:23.933Z,1.94
2018-12-12T03:32:52.400Z,1.96
2018-12-12T03:35:20.906Z,1.98
2018-12-12T03:37:49.745Z,1.98
2018-12-12T03:40:18.816Z,1.99
2018-12-12T03:42:47.770Z,1.99
2018-12-12T03:45:16.209Z,2.02
2018-12-12T03:47:44.669Z,2.02
2018-12-12T03:50:13.111Z,2.05
2018-12-12T03:52:41.550Z,2.10
2018-12-12T03:55:10.037Z,2.06
2018-12-12T03:57:38.466Z,2.06
2018-12-12T04:00:08.698Z,2.06
2018-12-12T04:02:37.249Z,2.07
2018-12-12T04:05:05.742Z,2.08
2018-12-12T04:07:34.170Z,2.02
2018-12-12T04:10:03.646Z,2.14
2018-12-12T04:12:32.111Z,2.04
2018-12-12T04:15:01.472Z,1.97
2018-12-12T04:17:29.959Z,1.94
2018-12-12T04:19:58.395Z,1.96
2018-12-12T04:22:27.154Z,1.91
2018-12-12T04:24:55.975Z,1.89
2018-12-12T04:27:24.507Z,1.87
2018-12-12T04:29:53.376Z,1.89
2018-12-12T04:32:21.845Z,1.90
2018-12-12T04:34:50.279Z,1.92
2018-12-12T04:37:18.731Z,1.93
2018-12-12T04:39:47.207Z,1.98
2018-12-12T04:42:15.622Z,2.01
2018-12-12T04:44:44.126Z,2.01
2018-12-12T04:47:12.604Z,2.02
2018-12-12T04:49:41.043Z,2.02
2018-12-12T04:52:09.510Z,2.03
2018-12-12T04:54:37.975Z,2.05
2018-12-12T04:57:06.393Z,2.05
2018-12-12T04:59:35.370Z,2.04
2018-12-12T05:02:03.879Z,2.03
2018-12-12T05:04:32.355Z,1.83
2018-12-12T05:07:01.796Z,2.05
2018-12-12T05:09:30.316Z,2.08
2018-12-12T05:11:59.009Z,2.05
2018-12-12T05:14:27.688Z,2.05
2018-12-12T05:16:56.141Z,2.14
2018-12-12T05:19:26.460Z,2.11
2018-12-12T05:21:55.379Z,2.19
2018-12-12T05:24:23.841Z,2.19
2018-12-12T05:26:52.289Z,2.16
2018-12-12T05:29:20.724Z,1.87
2018-12-12T05:31:49.232Z,2.33
2018-12-12T05:34:17.707Z,2.49
2018-12-12T05:36:48.166Z,2.57
2018-12-12T05:39:17.611Z,2.62
2018-12-12T05:41:46.027Z,2.59
2018-12-12T05:44:14.493Z,2.80
2018-12-12T05:46:43.239Z,2.81
2018-12-12T05:49:11.665Z,2.66
2018-12-12T05:51:40.595Z,1.71
2018-12-12T05:54:09.104Z,2.44
2018-12-12T05:56:37.553Z,2.38
2018-12-12T05:59:06.011Z,2.37
2018-12-12T06:01:34.606Z,2.35
2018-12-12T06:04:03.259Z,2.34
2018-12-12T06:06:31.711Z,2.33
2018-12-12T06:09:00.190Z,2.30
2018-12-12T06:11:28.821Z,2.29
2018-12-12T06:13:57.299Z,2.31
2018-12-12T06:16:25.815Z,2.32
2018-12-12T06:18:55.167Z,2.30
2018-12-12T06:21:23.590Z,2.29
2018-12-12T06:23:52.069Z,2.26
2018-12-12T06:26:20.537Z,2.25
2018-12-12T06:28:49.008Z,2.23
2018-12-12T06:31:17.512Z,2.21
2018-12-12T06:33:45.986Z,2.21
2018-12-12T06:36:14.471Z,2.20
2018-12-12T06:38:42.991Z,3.08
2018-12-12T06:41:11.429Z,3.73
2018-12-12T06:43:39.878Z,4.30
2018-12-12T06:46:09.103Z,4.23
2018-12-12T06:48:37.550Z,4.18
2018-12-12T06:51:06.283Z,4.35
2018-12-12T06:53:34.808Z,4.78
2018-12-12T06:56:03.283Z,5.03
2018-12-12T06:58:31.736Z,5.05
2018-12-12T07:01:00.226Z,5.23
2018-12-12T07:03:28.654Z,4.78
2018-12-12T07:05:57.354Z,4.19
2018-12-12T07:08:26.248Z,3.75
2018-12-12T07:10:54.933Z,3.34
2018-12-12T07:13:23.627Z,3.15
2018-12-12T07:15:55.307Z,3.03
2018-12-12T07:18:24.013Z,2.94
2018-12-12T07:20:52.442Z,2.88
2018-12-12T07:23:20.951Z,2.86
2018-12-12T07:25:49.403Z,2.79
2018-12-12T07:28:17.843Z,2.74
2018-12-12T07:30:46.561Z,2.64
2018-12-12T07:33:15.115Z,2.60
2018-12-12T07:35:43.690Z,2.55
2018-12-12T07:38:12.331Z,2.56
2018-12-12T07:40:40.819Z,2.62
2018-12-12T07:43:09.319Z,2.70
2018-12-12T07:45:37.818Z,2.74
2018-12-12T07:48:06.272Z,2.72
2018-12-12T07:50:34.720Z,2.75
2018-12-12T07:53:03.193Z,2.80
2018-12-12T07:55:31.622Z,2.82
2018-12-12T07:58:00.093Z,2.85
2018-12-12T08:00:28.611Z,2.89
2018-12-12T08:02:57.046Z,2.92
2018-12-12T08:05:25.498Z,2.96
2018-12-12T08:07:54.678Z,3.07
2018-12-12T08:10:23.117Z,3.17
2018-12-12T08:12:51.571Z,3.25
2018-12-12T08:15:20.650Z,3.33
2018-12-12T08:17:49.112Z,3.44
2018-12-12T08:20:17.670Z,3.58
2018-12-12T08:22:46.205Z,3.71
2018-12-12T08:25:14.906Z,3.85
2018-12-12T08:27:43.475Z,4.03
2018-12-12T08:30:12.572Z,4.18
2018-12-12T08:32:41.755Z,4.33
2018-12-12T08:35:10.217Z,4.51
2018-12-12T08:37:38.712Z,4.67
2018-12-12T08:40:09.904Z,4.66
2018-12-12T08:42:38.353Z,4.67
2018-12-12T08:45:06.869Z,4.80
2018-12-12T08:47:35.318Z,4.94
2018-12-12T08:50:04.737Z,5.08
2018-12-12T08:52:33.638Z,5.09
2018-12-12T08:55:02.050Z,5.22
2018-12-12T08:57:30.622Z,5.32
2018-12-12T08:59:59.122Z,5.32
2018-12-12T09:02:27.822Z,4.85
2018-12-12T09:04:56.485Z,5.47
2018-12-12T09:07:25.020Z,5.59
2018-12-12T09:09:53.471Z,5.59
2018-12-12T09:12:21.913Z,5.72
2018-12-12T09:14:50.403Z,5.56
2018-12-12T09:17:18.907Z,5.54
2018-12-12T09:19:47.331Z,5.45
2018-12-12T09:22:15.828Z,5.35
2018-12-12T09:24:44.249Z,5.41
2018-12-12T09:27:12.939Z,5.45
2018-12-12T09:29:43.996Z,5.32
2018-12-12T09:32:14.393Z,5.30
2018-12-12T09:34:43.149Z,5.38
2018-12-12T09:37:11.667Z,4.67
2018-12-12T09:39:40.354Z,5.53
2018-12-12T09:42:09.324Z,5.57
2018-12-12T09:44:37.807Z,5.50
2018-12-12T09:47:06.274Z,5.63
2018-12-12T09:49:34.729Z,5.82
2018-12-12T09:52:03.352Z,5.77
2018-12-12T09:54:33.727Z,5.72
2018-12-12T09:57:02.220Z,5.79
2018-12-12T09:59:31.625Z,5.68
2018-12-12T10:02:01.159Z,5.56
2018-12-12T10:04:31.115Z,5.55
2018-12-12T10:06:59.535Z,5.58
2018-12-12T10:09:28.049Z,5.69
2018-12-12T10:11:56.512Z,5.76
2018-12-12T10:14:24.934Z,5.67
2018-12-12T10:16:55.051Z,5.86
2018-12-12T10:19:23.548Z,5.87
2018-12-12T10:21:52.196Z,5.90
2018-12-12T10:24:20.679Z,5.94
2018-12-12T10:26:49.179Z,6.04
2018-12-12T10:29:17.957Z,6.12
2018-12-12T10:31:47.947Z,6.20
2018-12-12T10:34:16.451Z,6.24
2018-12-12T10:36:45.115Z,6.26
2018-12-12T10:39:15.565Z,6.24
2018-12-12T10:41:47.140Z,6.11
2018-12-12T10:44:16.775Z,6.03
2018-12-12T10:46:45.227Z,5.98
2018-12-12T10:49:13.693Z,5.98
2018-12-12T10:51:42.124Z,5.99
2018-12-12T10:54:11.389Z,6.03
2018-12-12T10:56:39.923Z,6.06
2018-12-12T10:59:10.469Z,6.07
2018-12-12T11:01:44.533Z,6.09
2018-12-12T11:04:13.227Z,6.10
2018-12-12T11:06:41.677Z,6.13
2018-12-12T11:09:10.172Z,5.91
2018-12-12T11:11:39.779Z,6.08
2018-12-12T11:14:08.241Z,6.06
2018-12-12T11:16:36.733Z,6.09
2018-12-12T11:19:05.182Z,6.16
2018-12-12T11:21:34.659Z,6.27
2018-12-12T11:24:03.622Z,6.33
2018-12-12T11:26:34.316Z,6.33
2018-12-12T11:29:02.770Z,6.31
2018-12-12T11:31:31.261Z,6.36
2018-12-12T11:33:59.984Z,6.39
2018-12-12T11:36:28.925Z,6.45
2018-12-12T11:38:57.387Z,6.48
2018-12-12T11:41:28.894Z,6.38
2018-12-12T11:43:58.288Z,6.40
2018-12-12T11:46:29.046Z,6.41
2018-12-12T11:48:58.913Z,6.56
2018-12-12T11:51:27.593Z,6.73
2018-12-12T11:53:59.981Z,6.64
2018-12-12T11:56:28.429Z,6.82
2018-12-12T11:58:56.863Z,6.83
2018-12-12T12:01:25.338Z,6.72
2018-12-12T12:03:56.692Z,6.78
2018-12-12T12:06:24.243Z,6.73
2018-12-12T12:08:52.708Z,6.63
2018-12-12T12:11:21.247Z,6.69
2018-12-12T12:13:49.702Z,6.76
2018-12-12T12:16:18.202Z,6.68
2018-12-12T12:18:46.660Z,6.68
2018-12-12T12:21:15.102Z,6.66
2018-12-12T12:23:43.598Z,6.70
2018-12-12T12:26:12.860Z,6.77
2018-12-12T12:28:41.319Z,6.63
2018-12-12T12:31:09.799Z,6.52
2018-12-12T12:33:38.360Z,6.46
2018-12-12T12:36:06.839Z,6.48
2018-12-12T12:38:35.330Z,6.44
2018-12-12T12:41:03.782Z,6.27
2018-12-12T12:43:32.215Z,6.16
2018-12-12T12:46:00.695Z,6.01
2018-12-12T12:48:29.151Z,5.93
2018-12-12T12:50:57.605Z,5.82
2018-12-12T12:53:26.083Z,5.82
2018-12-12T12:55:54.516Z,5.81
2018-12-12T12:58:22.964Z,5.81
2018-12-12T13:00:51.526Z,5.78
2018-12-12T13:03:19.975Z,5.80
2018-12-12T13:05:48.399Z,5.85
2018-12-12T13:08:16.888Z,5.79
2018-12-12T13:10:45.434Z,5.69
2018-12-12T13:13:14.284Z,5.67
2018-12-12T13:15:43.103Z,5.67
2018-12-12T13:18:11.752Z,5.72
2018-12-12T13:20:40.190Z,5.73
2018-12-12T13:23:08.671Z,5.94
2018-12-12T13:25:37.116Z,5.75
2018-12-12T13:28:05.587Z,5.56
2018-12-12T13:30:34.064Z,5.45
2018-12-12T13:33:03.288Z,5.39
2018-12-12T13:35:31.758Z,5.31
2018-12-12T13:38:00.228Z,5.31
2018-12-12T13:40:28.725Z,5.26
2018-12-12T13:42:57.183Z,5.19
2018-12-12T13:45:25.668Z,5.10
2018-12-12T13:47:54.091Z,4.97
2018-12-12T13:50:22.512Z,4.97
2018-12-12T13:52:51.008Z,4.86
2018-12-12T13:55:20.188Z,4.80
2018-12-12T13:57:49.197Z,4.80
2018-12-12T14:00:17.678Z,4.67
2018-12-12T14:02:46.177Z,4.60
2018-12-12T14:05:14.855Z,4.69
2018-12-12T14:07:43.339Z,4.54
2018-12-12T14:10:11.793Z,4.57
2018-12-12T14:12:41.363Z,4.57
2018-12-12T14:15:10.727Z,4.47
2018-12-12T14:17:39.415Z,4.48
2018-12-12T14:20:07.980Z,4.41
2018-12-12T14:22:37.080Z,4.38
2018-12-12T14:25:05.636Z,3.13
2018-12-12T14:27:38.878Z,4.53
2018-12-12T14:30:07.168Z,4.51
2018-12-12T14:32:35.979Z,4.49
2018-12-12T14:35:05.024Z,4.49
2018-12-12T14:37:33.511Z,4.73
2018-12-12T14:40:01.950Z,4.68
2018-12-12T14:42:30.402Z,4.58
2018-12-12T14:44:58.885Z,4.61
2018-12-12T14:47:27.352Z,4.57
2018-12-12T14:49:55.824Z,4.48
2018-12-12T14:52:24.291Z,4.43
2018-12-12T14:54:52.728Z,4.38
2018-12-12T14:57:21.925Z,4.38
2018-12-12T14:59:51.235Z,4.39
2018-12-12T15:02:19.892Z,4.26
2018-12-12T15:04:48.584Z,4.25
2018-12-12T15:07:17.628Z,4.19
2018-12-12T15:09:46.360Z,4.07
2018-12-12T15:12:14.812Z,4.07
2018-12-12T15:14:43.302Z,3.32
2018-12-12T15:17:11.756Z,4.10
2018-12-12T15:19:40.204Z,4.13
2018-12-12T15:22:09.238Z,4.05
2018-12-12T15:24:38.129Z,4.01
2018-12-12T15:27:06.579Z,3.91
2018-12-12T15:29:35.073Z,3.80
2018-12-12T15:32:03.559Z,3.71
2018-12-12T15:34:32.011Z,3.67
2018-12-12T15:37:02.148Z,3.56
2018-12-12T15:39:30.599Z,3.52
2018-12-12T15:41:59.011Z,3.47
2018-12-12T15:44:28.269Z,3.45
2018-12-12T15:46:56.868Z,3.60
2018-12-12T15:49:25.340Z,3.62
2018-12-12T15:51:53.819Z,3.70
2018-12-12T15:54:22.281Z,3.66
2018-12-12T15:56:50.721Z,3.62
2018-12-12T15:59:19.350Z,3.62
2018-12-12T16:01:47.859Z,3.91
2018-12-12T16:04:16.900Z,3.78
2018-12-12T16:06:45.396Z,3.57
2018-12-12T16:09:13.865Z,3.39
2018-12-12T16:11:42.590Z,3.24
2018-12-12T16:14:13.112Z,3.15
2018-12-12T16:16:41.624Z,3.11
2018-12-12T16:19:10.058Z,3.05
2018-12-12T16:21:38.538Z,2.97
2018-12-12T16:24:07.005Z,2.91
2018-12-12T16:26:35.472Z,2.89
2018-12-12T16:29:04.064Z,2.88
2018-12-12T16:31:32.510Z,2.85
2018-12-12T16:34:00.967Z,2.82
2018-12-12T16:36:29.462Z,2.73
2018-12-12T16:38:59.046Z,2.76
2018-12-12T16:41:27.505Z,2.70
2018-12-12T16:43:56.003Z,2.65
2018-12-12T16:46:24.482Z,2.61
2018-12-12T16:48:54.322Z,2.57
2018-12-12T16:51:23.494Z,2.57
2018-12-12T16:53:51.975Z,2.53
2018-12-12T16:56:21.508Z,2.53
2018-12-12T16:58:50.029Z,2.54
2018-12-12T17:01:18.462Z,2.55
2018-12-12T17:03:47.001Z,2.56
2018-12-12T17:06:15.473Z,2.59
2018-12-12T17:08:44.304Z,2.60
2018-12-12T17:11:13.282Z,2.59
2018-12-12T17:13:42.397Z,2.59
2018-12-12T17:16:10.865Z,2.59
2018-12-12T17:18:39.359Z,2.57
2018-12-12T17:21:07.953Z,2.60
2018-12-12T17:23:36.438Z,2.64
2018-12-12T17:26:05.076Z,2.63
2018-12-12T17:28:33.709Z,2.62
2018-12-12T17:31:02.604Z,2.55
2018-12-12T17:33:31.150Z,2.55
2018-12-12T17:35:59.713Z,2.58
2018-12-12T17:38:28.210Z,2.61
2018-12-12T17:40:56.773Z,2.67
2018-12-12T17:43:25.369Z,2.70
2018-12-12T17:45:53.904Z,2.72
2018-12-12T17:48:22.460Z,2.74
2018-12-12T17:50:51.059Z,2.74
2018-12-12T17:53:19.729Z,2.74
2018-12-12T17:55:48.259Z,2.74
2018-12-12T17:58:16.854Z,2.77
2018-12-12T18:00:45.470Z,2.77
2018-12-12T18:03:14.000Z,2.75
2018-12-12T18:05:42.591Z,2.73
2018-12-12T18:08:11.653Z,2.73
2018-12-12T18:10:40.265Z,2.70
2018-12-12T18:13:09.148Z,2.65
2018-12-12T18:15:37.738Z,2.53
2018-12-12T18:18:06.305Z,2.47
2018-12-12T18:20:34.937Z,2.44
2018-12-12T18:23:04.167Z,2.43
2018-12-12T18:25:32.830Z,2.43
2018-12-12T18:28:01.423Z,2.46
2018-12-12T18:30:30.512Z,2.42
2018-12-12T18:33:01.266Z,2.39
2018-12-12T18:35:30.565Z,2.34
2018-12-12T18:38:00.032Z,2.32
2018-12-12T18:40:28.806Z,2.32
2018-12-12T18:42:57.344Z,2.31
2018-12-12T18:45:25.993Z,-0.16
2018-12-12T18:47:54.611Z,2.29
2018-12-12T18:50:23.285Z,2.27
2018-12-12T18:52:51.821Z,2.26
2018-12-12T18:55:20.645Z,2.23
2018-12-12T18:57:49.319Z,2.25
2018-12-12T19:00:18.821Z,2.24
2018-12-12T19:02:47.420Z,2.24
2018-12-12T19:05:16.266Z,2.22
2018-12-12T19:07:50.291Z,2.15
2018-12-12T19:10:19.011Z,2.22
2018-12-12T19:12:47.607Z,2.33
2018-12-12T19:15:16.545Z,2.35
2018-12-12T19:17:45.104Z,2.33
2018-12-12T19:20:18.433Z,2.32
2018-12-12T19:22:47.403Z,2.28
2018-12-12T19:25:16.335Z,2.23
2018-12-12T19:27:45.050Z,2.19
2018-12-12T19:30:13.799Z,2.16
2018-12-12T19:32:42.397Z,2.14
2018-12-12T19:35:11.694Z,2.12
2018-12-12T19:37:41.298Z,2.10
2018-12-12T19:40:10.660Z,2.10
2018-12-12T19:42:39.182Z,2.09
2018-12-12T19:45:13.093Z,2.06
2018-12-12T19:47:41.731Z,2.04
2018-12-12T19:50:10.498Z,2.03
2018-12-12T19:52:39.839Z,2.02
2018-12-12T19:55:09.680Z,2.03
2018-12-12T19:57:38.628Z,2.03
2018-12-12T20:00:08.690Z,1.99
2018-12-12T20:02:37.602Z,1.94
2018-12-12T20:05:09.628Z,1.96
2018-12-12T20:07:38.138Z,1.98
2018-12-12T20:10:12.802Z,1.98
2018-12-12T20:12:41.464Z,1.99
2018-12-12T20:15:13.079Z,1.99
2018-12-12T20:17:43.308Z,2.01
2018-12-12T20:20:12.122Z,2.01
2018-12-12T20:22:40.748Z,2.02
2018-12-12T20:25:11.088Z,2.05
2018-12-12T20:27:41.778Z,2.02
2018-12-12T20:30:14.861Z,2.02
2018-12-12T20:32:43.484Z,1.99
2018-12-12T20:35:12.163Z,1.94
2018-12-12T20:37:40.700Z,1.89
2018-12-12T20:40:09.611Z,1.83
2018-12-12T20:42:38.281Z,0.18
2018-12-12T20:45:07.749Z,1.68
2018-12-12T20:47:37.308Z,1.60
2018-12-12T20:50:06.809Z,1.53
2018-12-12T20:52:35.317Z,1.44
2018-12-12T20:55:04.303Z,1.40
2018-12-12T20:57:32.980Z,1.33
2018-12-12T21:00:01.508Z,1.25
2018-12-12T21:02:30.064Z,1.20
2018-12-12T21:04:58.600Z,1.11
2018-12-12T21:07:27.397Z,1.06
2018-12-12T21:09:56.485Z,1.04
2018-12-12T21:12:26.124Z,0.99
2018-12-12T21:14:54.650Z,0.97
2018-12-12T21:17:23.212Z,0.93
2018-12-12T21:19:51.692Z,0.83
2018-12-12T21:22:20.258Z,0.79
2018-12-12T21:24:48.836Z,0.71
2018-12-12T21:27:27.280Z,0.69
2018-12-12T21:29:56.523Z,0.66
2018-12-12T21:32:25.078Z,0.55
2018-12-12T21:34:53.989Z,0.52
2018-12-12T21:37:22.712Z,0.50
2018-12-12T21:39:51.285Z,0.46
2018-12-12T21:42:20.269Z,0.40
2018-12-12T21:44:49.851Z,0.37
2018-12-12T21:47:18.424Z,0.33
2018-12-12T21:49:47.003Z,0.31
2018-12-12T21:52:15.520Z,0.30
2018-12-12T21:54:43.997Z,0.33
2018-12-12T21:57:12.519Z,0.38
2018-12-12T21:59:41.024Z,0.41
2018-12-12T22:02:09.562Z,0.46
2018-12-12T22:04:38.083Z,0.47
2018-12-12T22:07:06.728Z,0.43
2018-12-12T22:09:35.245Z,0.36
2018-12-12T22:12:03.771Z,0.35
2018-12-12T22:14:32.316Z,0.32
2018-12-12T22:17:00.851Z,0.29
2018-12-12T22:19:29.591Z,0.26
2018-12-12T22:21:58.122Z,0.22
2018-12-12T22:24:26.584Z,0.18
2018-12-12T22:26:55.011Z,0.14
2018-12-12T22:29:23.501Z,0.05
2018-12-12T22:31:51.984Z,0.03
2018-12-12T22:34:20.422Z,0.05
2018-12-12T22:36:48.943Z,-0.04
2018-12-12T22:39:17.779Z,-0.01
2018-12-12T22:41:46.485Z,-0.03
2018-12-12T22:44:14.965Z,0.01
2018-12-12T22:46:43.411Z,0.03
2018-12-12T22:49:11.871Z,0.10
2018-12-12T22:51:40.398Z,0.20
2018-12-12T22:54:08.911Z,0.24
2018-12-12T22:56:37.553Z,0.30
2018-12-12T22:59:06.055Z,0.37
2018-12-12T23:01:34.472Z,0.43
2018-12-12T23:04:02.931Z,0.44
2018-12-12T23:06:31.422Z,0.40
2018-12-12T23:09:00.092Z,0.33
2018-12-12T23:11:28.563Z,0.31
2018-12-12T23:13:57.057Z,0.32
2018-12-12T23:16:25.508Z,0.31
2018-12-12T23:18:53.986Z,0.34
2018-12-12T23:21:22.507Z,0.41
2018-12-12T23:23:51.013Z,0.42
2018-12-12T23:26:19.489Z,0.43
2018-12-12T23:28:47.955Z,0.44
2018-12-12T23:31:16.504Z,0.50
2018-12-12T23:33:45.024Z,0.51
2018-12-12T23:36:13.526Z,0.55
2018-12-12T23:38:41.959Z,0.59
2018-12-12T23:41:10.427Z,0.63
2018-12-12T23:43:38.923Z,0.67
2018-12-12T23:46:07.372Z,0.70
2018-12-12T23:48:35.985Z,0.73
2018-12-12T23:51:04.482Z,0.72
2018-12-12T23:53:32.960Z,0.70
2018-12-12T23:56:01.428Z,0.76
2018-12-12T23:58:29.963Z,0.85
